TimePST,TemperatureF,Dew PointF,Humidity,Sea Level PressureIn,VisibilityMPH,Wind Direction,Wind SpeedMPH,Gust SpeedMPH,PrecipitationIn,Events,Conditions,WindDirDegrees,DateUTC
12:53 AM,44.1,41.0,89,30.16,10.0,Calm,Calm,-,N/A,,Overcast,0,2013-01-05 08:53:00
1:53 AM,42.1,39.9,92,30.17,10.0,WSW,4.6,-,N/A,,Overcast,250,2013-01-05 09:53:00
2:53 AM,43.0,39.9,89,30.17,10.0,Calm,Calm,-,N/A,,Overcast,0,2013-01-05 10:53:00
3:53 AM,42.1,39.9,92,30.17,4.0,SW,5.8,-,N/A,,Overcast,230,2013-01-05 11:53:00
4:53 AM,42.1,39.9,92,30.17,8.0,SW,4.6,-,N/A,,Overcast,230,2013-01-05 12:53:00
5:53 AM,43.0,41.0,93,30.16,10.0,Variable,3.5,-,N/A,,Overcast,0,2013-01-05 13:53:00
6:27 AM,43.0,41.0,93,30.15,8.0,SE,5.8,-,0.00,Rain,Light Rain,130,2013-01-05 14:27:00
6:53 AM,43.0,42.1,97,30.15,6.0,Calm,Calm,-,0.00,Rain,Light Rain,0,2013-01-05 14:53:00
7:53 AM,43.0,42.1,97,30.13,8.0,ESE,11.5,-,0.00,,Overcast,120,2013-01-05 15:53:00
8:12 AM,43.0,41.0,93,30.12,10.0,SE,9.2,-,N/A,,Overcast,130,2013-01-05 16:12:00
8:53 AM,43.0,41.0,93,30.13,10.0,ESE,9.2,-,N/A,,Mostly Cloudy,110,2013-01-05 16:53:00
9:05 AM,42.8,41.0,93,30.12,10.0,East,8.1,-,N/A,,Mostly Cloudy,100,2013-01-05 17:05:00
9:16 AM,43.0,41.0,93,30.11,10.0,East,9.2,-,N/A,,Mostly Cloudy,100,2013-01-05 17:16:00
9:53 AM,43.0,41.0,93,30.13,10.0,Calm,Calm,-,N/A,,Overcast,0,2013-01-05 17:53:00
10:25 AM,43.0,41.0,93,30.11,10.0,ESE,4.6,-,N/A,,Partly Cloudy,120,2013-01-05 18:25:00
10:53 AM,44.1,41.0,89,30.11,10.0,Calm,Calm,-,N/A,,Partly Cloudy,0,2013-01-05 18:53:00
11:13 AM,44.1,41.0,89,30.10,10.0,WNW,4.6,-,N/A,,Mostly Cloudy,290,2013-01-05 19:13:00
11:45 AM,44.6,42.8,93,30.08,10.0,WNW,5.8,-,N/A,,Scattered Clouds,290,2013-01-05 19:45:00
11:53 AM,45.0,42.1,90,30.08,10.0,West,6.9,-,N/A,,Scattered Clouds,280,2013-01-05 19:53:00
12:01 PM,45.0,42.1,90,30.07,10.0,WNW,8.1,-,N/A,,Mostly Cloudy,290,2013-01-05 20:01:00
12:33 PM,45.0,42.1,90,30.07,10.0,West,9.2,-,N/A,,Partly Cloudy,280,2013-01-05 20:33:00
12:53 PM,45.0,42.1,90,30.06,10.0,Variable,3.5,-,N/A,,Partly Cloudy,0,2013-01-05 20:53:00
1:53 PM,46.0,41.0,83,30.05,10.0,WNW,10.4,-,N/A,,Clear,290,2013-01-05 21:53:00
2:53 PM,46.0,42.1,86,30.05,10.0,WNW,11.5,-,N/A,,Clear,300,2013-01-05 22:53:00
3:53 PM,45.0,41.0,86,30.05,10.0,West,10.4,-,N/A,,Clear,280,2013-01-05 23:53:00
4:31 PM,45.0,41.0,86,30.06,10.0,West,6.9,-,N/A,,Overcast,270,2013-01-06 00:31:00
4:53 PM,45.0,41.0,86,30.07,10.0,West,9.2,-,N/A,,Overcast,280,2013-01-06 00:53:00
5:23 PM,44.1,39.9,85,30.06,10.0,West,8.1,-,N/A,,Mostly Cloudy,280,2013-01-06 01:23:00
5:48 PM,44.6,39.2,81,30.07,10.0,WSW,6.9,-,N/A,,Overcast,240,2013-01-06 01:48:00
5:53 PM,44.1,39.9,85,30.08,10.0,WSW,6.9,-,N/A,,Overcast,250,2013-01-06 01:53:00
6:15 PM,45.0,41.0,86,30.07,10.0,West,6.9,-,0.00,Rain,Light Rain,260,2013-01-06 02:15:00
6:51 PM,42.8,39.2,87,30.08,10.0,West,11.5,-,0.00,Rain,Light Rain,280,2013-01-06 02:51:00
6:53 PM,43.0,39.0,86,30.09,10.0,West,11.5,-,0.00,Rain,Light Rain,280,2013-01-06 02:53:00
7:53 PM,42.1,37.9,85,30.10,10.0,West,4.6,-,0.00,,Overcast,270,2013-01-06 03:53:00
8:25 PM,42.1,37.9,85,30.09,10.0,West,3.5,-,N/A,,Overcast,280,2013-01-06 04:25:00
8:53 PM,41.0,39.0,93,30.10,10.0,Calm,Calm,-,N/A,,Overcast,0,2013-01-06 04:53:00
9:53 PM,39.9,37.9,93,30.10,10.0,SW,3.5,-,N/A,,Mostly Cloudy,220,2013-01-06 05:53:00
10:53 PM,37.9,36.0,93,30.11,10.0,WSW,4.6,-,N/A,,Overcast,240,2013-01-06 06:53:00
11:53 PM,39.0,36.0,89,30.11,10.0,South,3.5,-,N/A,,Mostly Cloudy,190,2013-01-06 07:53:00